Vision — WDF6306 — position and weather

sailwx.info

Track history (hours):
 
Tides and Currents Weather Stations Pressure Air Temp Water Temp Dewpoint Dewpoint Depression Visibility Wind Speed Wind Dir Waves Ship Positions

Vision

More information available from US FCC via Universal Licensing System and Coast Guard Vessel Documentation Center.

Last reported at 2014-Sep-23 01:33 UTC. Time now 2014-Sep-23 02:19 UTC.
Position N 38°02' W 122°08'.

Length 199 m; draft 8.9 m.

Type: Towing. MMSI: 366904000.

Date/timePositionNaut miles runAvg speedWind from/ knotsBaromVisibWave heightAir tempDewpointWater temp
2014-Sep-23 01:33N 38°02' W 122°08'7 6.9
2014-Sep-23 00:33N 38°04' W 122°17'8 8.5
2014-Sep-22 23:33N 37°59' W 122°26'8 8.1
2014-Sep-22 22:34N 37°51' W 122°24'8 7.6
2014-Sep-22 21:33N 37°47' W 122°33'10 9.7
2014-Sep-22 20:33N 37°42' W 122°44'8 8.4
2014-Sep-22 19:33N 37°38' W 122°53'9 9.2
2014-Sep-22 18:33N 37°33' W 123°02'1110.5
2014-Sep-22 17:32N 37°34' W 123°16'1111.0
2014-Sep-22 16:33N 37°37' W 123°29'8 8.4
2014-Sep-22 15:33N 37°41' W 123°38'9 9.1
2014-Sep-22 14:34N 37°46' W 123°48'1510.9
2014-Sep-22 13:12N 37°55' W 124°02'911.3
2014-Sep-22 12:26N 38°01' W 124°11'1211.7
2014-Sep-22 11:24N 38°09' W 124°23'1011.6
2014-Sep-22 10:30N 38°16' W 124°32'51311.1
2014-Sep-20 12:13N 46°46' W 125°45'811.6
2014-Sep-20 11:33N 46°54' W 125°44'5111.8
2014-Sep-20 07:17N 47°44' W 125°39'2311.5
2014-Sep-20 05:16N 48°05' W 125°23'811.3
2014-Sep-20 04:32N 48°12' W 125°17'1111.7
2014-Sep-20 03:34N 48°22' W 125°09'1111.2
2014-Sep-20 02:33N 48°31' W 124°58'1212.0
2014-Sep-20 01:33N 48°29' W 124°40'1313.0
2014-Sep-20 00:33N 48°24' W 124°22'1312.7
2014-Sep-19 23:33N 48°19' W 124°05'1313.0
2014-Sep-19 22:33N 48°16' W 123°46'6 6.4
2014-Sep-19 21:33N 48°15' W 123°36'10 9.6
2014-Sep-19 20:33N 48°10' W 123°24'9 8.8
2014-Sep-19 19:33N 48°13' W 123°11'1211.7
2014-Sep-19 18:33N 48°21' W 122°58'1211.6
2014-Sep-19 17:33N 48°28' W 122°45'7 7.4
2014-Sep-19 16:33N 48°31' W 122°35'0 0.2
2014-Sep-19 15:32N 48°31' W 122°35'0 0.0
2014-Sep-19 14:32N 48°31' W 122°35'0 0.0
2014-Sep-19 13:32N 48°31' W 122°35'0 0.0
2014-Sep-19 12:32N 48°31' W 122°35'0 0.0
2014-Sep-19 11:32N 48°31' W 122°35'0 0.0
2014-Sep-19 10:32N 48°31' W 122°35'0 0.0
2014-Sep-19 09:32N 48°31' W 122°35'0 0.0
2014-Sep-19 08:32N 48°31' W 122°35'0 0.0
2014-Sep-19 07:32N 48°31' W 122°35'0 0.0
2014-Sep-19 06:32N 48°31' W 122°35'0 0.0
2014-Sep-19 05:32N 48°31' W 122°35'0 0.0
2014-Sep-19 04:32N 48°31' W 122°35'0 0.0
2014-Sep-19 03:32N 48°31' W 122°35'0 0.0
2014-Sep-19 02:26N 48°31' W 122°35'0 0.0
2014-Sep-19 01:32N 48°31' W 122°35'0 0.0
2014-Sep-19 00:32N 48°31' W 122°35'0 0.0
2014-Sep-18 23:32N 48°31' W 122°35'0 0.0
2014-Sep-18 22:32N 48°31' W 122°35'0 0.0
2014-Sep-18 21:32N 48°31' W 122°35'0 0.0
2014-Sep-18 20:32N 48°31' W 122°35'0 0.0
2014-Sep-18 19:26N 48°31' W 122°35'0 0.0
2014-Sep-18 18:32N 48°31' W 122°35'0 0.0
2014-Sep-18 17:26N 48°31' W 122°35'0 0.0
2014-Sep-18 16:17N 48°31' W 122°35'0 0.0
2014-Sep-18 15:33N 48°31' W 122°35'1 0.6
2014-Sep-18 14:33N 48°31' W 122°35'0 0.0
2014-Sep-18 13:28N 48°31' W 122°35'0 0.0
2014-Sep-18 12:31N 48°31' W 122°35'0 0.0
2014-Sep-18 11:28N 48°31' W 122°35'0 0.0
2014-Sep-18 10:22N 48°31' W 122°35'0 0.0
2014-Sep-18 09:16N 48°31' W 122°35'0 0.0
2014-Sep-18 08:31N 48°31' W 122°35'0 0.0
2014-Sep-18 07:07N 48°31' W 122°35'0 0.0
2014-Sep-18 06:28N 48°31' W 122°35'0 0.0
2014-Sep-18 05:31N 48°31' W 122°35'0 0.0
2014-Sep-18 04:28N 48°31' W 122°35'0 0.0
2014-Sep-18 03:25N 48°31' W 122°35'0 0.0
2014-Sep-18 02:22N 48°31' W 122°35'0 0.0
2014-Sep-18 01:28N 48°31' W 122°35'0 0.0
2014-Sep-18 00:22N 48°31' W 122°35'0 0.0
2014-Sep-17 23:28N 48°31' W 122°35'0 0.0
2014-Sep-17 22:28N 48°31' W 122°35'0 0.2
2014-Sep-17 21:25N 48°31' W 122°35'0 0.1
2014-Sep-17 20:31N 48°31' W 122°35'0 0.2
2014-Sep-17 19:31N 48°31' W 122°35'0 0.1
2014-Sep-17 18:28N 48°31' W 122°35'0 0.1
2014-Sep-17 17:28N 48°31' W 122°35'0 0.1
2014-Sep-17 16:28N 48°31' W 122°35'0 0.1
2014-Sep-17 15:22N 48°31' W 122°35'0 0.1
2014-Sep-17 14:28N 48°31' W 122°35'0 0.0
2014-Sep-17 13:28N 48°31' W 122°35'0 0.0
2014-Sep-17 12:31N 48°31' W 122°35'0 0.0
2014-Sep-17 11:28N 48°31' W 122°35'0 0.0
2014-Sep-17 10:31N 48°31' W 122°35'0 0.0
2014-Sep-17 09:31N 48°31' W 122°35'0 0.0
2014-Sep-17 08:28N 48°31' W 122°35'0 0.0
2014-Sep-17 07:28N 48°31' W 122°35'0 0.0
2014-Sep-17 06:31N 48°31' W 122°35'0 0.0
2014-Sep-17 05:28N 48°31' W 122°35'0 0.0
2014-Sep-17 04:31N 48°31' W 122°35'0 0.0
2014-Sep-17 03:31N 48°31' W 122°35'0 0.1
2014-Sep-17 02:31N 48°31' W 122°35'0 0.0
2014-Sep-17 01:28N 48°31' W 122°35'0 0.0
2014-Sep-17 00:28N 48°31' W 122°35'0 0.0
2014-Sep-16 23:22N 48°31' W 122°35'0 0.0
2014-Sep-16 22:28N 48°31' W 122°35'0 0.0
2014-Sep-16 21:28N 48°31' W 122°35'0 0.1
2014-Sep-16 20:31N 48°31' W 122°35'0 0.2
2014-Sep-16 19:22N 48°31' W 122°35'0 0.2
2014-Sep-16 18:16N 48°31' W 122°35'0 0.1
2014-Sep-16 17:28N 48°31' W 122°35'0 0.1
2014-Sep-16 16:28N 48°31' W 122°35'0 0.1
2014-Sep-16 15:31N 48°31' W 122°35'0 0.2
2014-Sep-16 14:28N 48°31' W 122°35'0 0.1
2014-Sep-16 13:28N 48°31' W 122°35'0 0.0
2014-Sep-16 12:31N 48°31' W 122°35'0 0.0
2014-Sep-16 11:28N 48°31' W 122°35'0 0.0
2014-Sep-16 10:28N 48°31' W 122°35'0 0.0
2014-Sep-16 09:31N 48°31' W 122°35'0 0.0
2014-Sep-16 08:28N 48°31' W 122°35'0 0.0
2014-Sep-16 07:31N 48°31' W 122°35'0 0.0
2014-Sep-16 06:31N 48°31' W 122°35'0 0.0
2014-Sep-16 05:31N 48°31' W 122°35'0 0.0
2014-Sep-16 04:28N 48°31' W 122°35'0 0.0
2014-Sep-16 03:28N 48°31' W 122°35'0 0.0
2014-Sep-16 02:31N 48°31' W 122°35'0 0.0
2014-Sep-16 01:28N 48°31' W 122°35'0 0.0
2014-Sep-16 00:28N 48°31' W 122°35'0 0.0
2014-Sep-15 23:28N 48°31' W 122°35'0 0.0
2014-Sep-15 22:28N 48°31' W 122°35'0 0.0
2014-Sep-15 21:22N 48°31' W 122°35'0 0.0
2014-Sep-15 20:31N 48°31' W 122°35'0 0.0
2014-Sep-15 19:31N 48°31' W 122°35'0 0.1
2014-Sep-15 18:28N 48°31' W 122°35'0 0.0
2014-Sep-15 17:28N 48°31' W 122°35'0 0.1
2014-Sep-15 16:28N 48°31' W 122°35'0 0.1
2014-Sep-15 15:22N 48°31' W 122°35'0 0.1
2014-Sep-15 14:28N 48°31' W 122°35'0 0.2
2014-Sep-15 13:31N 48°31' W 122°35'0 0.0
2014-Sep-15 12:31N 48°31' W 122°35'0 0.0
2014-Sep-15 11:31N 48°31' W 122°35'0 0.0
2014-Sep-15 10:31N 48°31' W 122°35'0 0.0
2014-Sep-15 09:28N 48°31' W 122°35'0 0.0
2014-Sep-15 08:28N 48°31' W 122°35'0 0.0
2014-Sep-15 07:28N 48°31' W 122°35'0 0.0
2014-Sep-15 06:28N 48°31' W 122°35'0 0.0
2014-Sep-15 05:28N 48°31' W 122°35'0 0.1
2014-Sep-15 04:28N 48°31' W 122°35'0 0.1
2014-Sep-15 03:28N 48°31' W 122°35'0 0.0
2014-Sep-15 02:33N 48°31' W 122°35'0 0.1
2014-Sep-15 01:33N 48°31' W 122°35'0 0.1
2014-Sep-15 00:33N 48°31' W 122°35'0 0.0
2014-Sep-14 23:33N 48°31' W 122°35'0 0.0
2014-Sep-14 22:33N 48°31' W 122°35'0 0.0
2014-Sep-14 21:33N 48°31' W 122°35'0 0.1
2014-Sep-14 20:33N 48°31' W 122°35'1 0.7
2014-Sep-14 19:33N 48°31' W 122°35'0 0.0
2014-Sep-14 18:31N 48°31' W 122°35'0 0.0
2014-Sep-14 17:31N 48°31' W 122°35'0 0.0
2014-Sep-14 16:31N 48°31' W 122°35'0 0.0
2014-Sep-14 15:28N 48°31' W 122°35'0 0.0
2014-Sep-14 14:31N 48°31' W 122°35'0 0.0
2014-Sep-14 13:28N 48°31' W 122°35'0 0.0
2014-Sep-14 12:31N 48°31' W 122°35'0 0.0
2014-Sep-14 11:31N 48°31' W 122°35'0 0.0
2014-Sep-14 10:31N 48°31' W 122°35'0 0.0
2014-Sep-14 09:31N 48°31' W 122°35'0 0.0
2014-Sep-14 08:28N 48°31' W 122°35'0 0.0
2014-Sep-14 07:31N 48°31' W 122°35'0 0.0
2014-Sep-14 06:31N 48°31' W 122°35'0 0.0
2014-Sep-14 05:28N 48°31' W 122°35'0 0.0
2014-Sep-14 04:31N 48°31' W 122°35'0 0.0
2014-Sep-14 03:28N 48°31' W 122°35'0 0.0
2014-Sep-14 02:31N 48°31' W 122°35'0 0.0
2014-Sep-14 01:31N 48°31' W 122°35'0 0.0
2014-Sep-13 21:31N 48°31' W 122°35'0 0.0
2014-Sep-13 20:31N 48°31' W 122°35'0 0.0
2014-Sep-13 19:28N 48°31' W 122°35'0 0.0
2014-Sep-13 18:31N 48°31' W 122°35'0 0.0
2014-Sep-13 17:28N 48°31' W 122°35'0 0.0
2014-Sep-13 16:28N 48°31' W 122°35'0 0.0
2014-Sep-13 15:28N 48°31' W 122°35'0 0.0
2014-Sep-13 14:31N 48°31' W 122°35'0 0.0
2014-Sep-13 13:31N 48°31' W 122°35'0 0.0
2014-Sep-13 12:31N 48°31' W 122°35'0 0.0
2014-Sep-13 11:31N 48°31' W 122°35'0 0.0
2014-Sep-13 10:31N 48°31' W 122°35'0 0.0
2014-Sep-13 09:31N 48°31' W 122°35'0 0.0
2014-Sep-13 08:34N 48°31' W 122°35'0 0.5
2014-Sep-13 07:34N 48°31' W 122°35'0 0.1
2014-Sep-13 06:33N 48°31' W 122°35'0 0.0
2014-Sep-13 05:31N 48°31' W 122°35'0 0.0
2014-Sep-13 04:31N 48°31' W 122°35'0 0.1
2014-Sep-13 03:28N 48°31' W 122°35'0 0.0
2014-Sep-13 02:31N 48°31' W 122°35'  
Track history (hours):
 
Tides and Currents Weather Stations Pressure Air Temp Water Temp Dewpoint Dewpoint Depression Visibility Wind Speed Wind Dir Waves Ship Positions

Vision

More information available from US FCC via Universal Licensing System and Coast Guard Vessel Documentation Center.

Last reported at 2014-Sep-23 01:33 UTC. Time now 2014-Sep-23 02:19 UTC.
Position N 38°02' W 122°08'.

Length 199 m; draft 8.9 m.

Type: Towing. MMSI: 366904000.

Date/timePositionNaut miles runAvg speedWind from/ knotsBaromVisibWave heightAir tempDewpointWater temp
2014-Sep-23 01:33N 38°02' W 122°08'7 6.9
2014-Sep-23 00:33N 38°04' W 122°17'8 8.5
2014-Sep-22 23:33N 37°59' W 122°26'8 8.1
2014-Sep-22 22:34N 37°51' W 122°24'8 7.6
2014-Sep-22 21:33N 37°47' W 122°33'10 9.7
2014-Sep-22 20:33N 37°42' W 122°44'8 8.4
2014-Sep-22 19:33N 37°38' W 122°53'9 9.2
2014-Sep-22 18:33N 37°33' W 123°02'1110.5
2014-Sep-22 17:32N 37°34' W 123°16'1111.0
2014-Sep-22 16:33N 37°37' W 123°29'8 8.4
2014-Sep-22 15:33N 37°41' W 123°38'9 9.1
2014-Sep-22 14:34N 37°46' W 123°48'1510.9
2014-Sep-22 13:12N 37°55' W 124°02'911.3
2014-Sep-22 12:26N 38°01' W 124°11'1211.7
2014-Sep-22 11:24N 38°09' W 124°23'1011.6
2014-Sep-22 10:30N 38°16' W 124°32'51311.1
2014-Sep-20 12:13N 46°46' W 125°45'811.6
2014-Sep-20 11:33N 46°54' W 125°44'5111.8
2014-Sep-20 07:17N 47°44' W 125°39'2311.5
2014-Sep-20 05:16N 48°05' W 125°23'811.3
2014-Sep-20 04:32N 48°12' W 125°17'1111.7
2014-Sep-20 03:34N 48°22' W 125°09'1111.2
2014-Sep-20 02:33N 48°31' W 124°58'1212.0
2014-Sep-20 01:33N 48°29' W 124°40'1313.0
2014-Sep-20 00:33N 48°24' W 124°22'1312.7
2014-Sep-19 23:33N 48°19' W 124°05'1313.0
2014-Sep-19 22:33N 48°16' W 123°46'6 6.4
2014-Sep-19 21:33N 48°15' W 123°36'10 9.6
2014-Sep-19 20:33N 48°10' W 123°24'9 8.8
2014-Sep-19 19:33N 48°13' W 123°11'1211.7
2014-Sep-19 18:33N 48°21' W 122°58'1211.6
2014-Sep-19 17:33N 48°28' W 122°45'7 7.4
2014-Sep-19 16:33N 48°31' W 122°35'0 0.2
2014-Sep-19 15:32N 48°31' W 122°35'0 0.0
2014-Sep-19 14:32N 48°31' W 122°35'0 0.0
2014-Sep-19 13:32N 48°31' W 122°35'0 0.0
2014-Sep-19 12:32N 48°31' W 122°35'0 0.0
2014-Sep-19 11:32N 48°31' W 122°35'0 0.0
2014-Sep-19 10:32N 48°31' W 122°35'0 0.0
2014-Sep-19 09:32N 48°31' W 122°35'0 0.0
2014-Sep-19 08:32N 48°31' W 122°35'0 0.0
2014-Sep-19 07:32N 48°31' W 122°35'0 0.0
2014-Sep-19 06:32N 48°31' W 122°35'0 0.0
2014-Sep-19 05:32N 48°31' W 122°35'0 0.0
2014-Sep-19 04:32N 48°31' W 122°35'0 0.0
2014-Sep-19 03:32N 48°31' W 122°35'0 0.0
2014-Sep-19 02:26N 48°31' W 122°35'0 0.0
2014-Sep-19 01:32N 48°31' W 122°35'0 0.0
2014-Sep-19 00:32N 48°31' W 122°35'0 0.0
2014-Sep-18 23:32N 48°31' W 122°35'0 0.0
2014-Sep-18 22:32N 48°31' W 122°35'0 0.0
2014-Sep-18 21:32N 48°31' W 122°35'0 0.0
2014-Sep-18 20:32N 48°31' W 122°35'0 0.0
2014-Sep-18 19:26N 48°31' W 122°35'0 0.0
2014-Sep-18 18:32N 48°31' W 122°35'0 0.0
2014-Sep-18 17:26N 48°31' W 122°35'0 0.0
2014-Sep-18 16:17N 48°31' W 122°35'0 0.0
2014-Sep-18 15:33N 48°31' W 122°35'1 0.6
2014-Sep-18 14:33N 48°31' W 122°35'0 0.0
2014-Sep-18 13:28N 48°31' W 122°35'0 0.0
2014-Sep-18 12:31N 48°31' W 122°35'0 0.0
2014-Sep-18 11:28N 48°31' W 122°35'0 0.0
2014-Sep-18 10:22N 48°31' W 122°35'0 0.0
2014-Sep-18 09:16N 48°31' W 122°35'0 0.0
2014-Sep-18 08:31N 48°31' W 122°35'0 0.0
2014-Sep-18 07:07N 48°31' W 122°35'0 0.0
2014-Sep-18 06:28N 48°31' W 122°35'0 0.0
2014-Sep-18 05:31N 48°31' W 122°35'0 0.0
2014-Sep-18 04:28N 48°31' W 122°35'0 0.0
2014-Sep-18 03:25N 48°31' W 122°35'0 0.0
2014-Sep-18 02:22N 48°31' W 122°35'0 0.0
2014-Sep-18 01:28N 48°31' W 122°35'0 0.0
2014-Sep-18 00:22N 48°31' W 122°35'0 0.0
2014-Sep-17 23:28N 48°31' W 122°35'0 0.0
2014-Sep-17 22:28N 48°31' W 122°35'0 0.2
2014-Sep-17 21:25N 48°31' W 122°35'0 0.1
2014-Sep-17 20:31N 48°31' W 122°35'0 0.2
2014-Sep-17 19:31N 48°31' W 122°35'0 0.1
2014-Sep-17 18:28N 48°31' W 122°35'0 0.1
2014-Sep-17 17:28N 48°31' W 122°35'0 0.1
2014-Sep-17 16:28N 48°31' W 122°35'0 0.1
2014-Sep-17 15:22N 48°31' W 122°35'0 0.1
2014-Sep-17 14:28N 48°31' W 122°35'0 0.0
2014-Sep-17 13:28N 48°31' W 122°35'0 0.0
2014-Sep-17 12:31N 48°31' W 122°35'0 0.0
2014-Sep-17 11:28N 48°31' W 122°35'0 0.0
2014-Sep-17 10:31N 48°31' W 122°35'0 0.0
2014-Sep-17 09:31N 48°31' W 122°35'0 0.0
2014-Sep-17 08:28N 48°31' W 122°35'0 0.0
2014-Sep-17 07:28N 48°31' W 122°35'0 0.0
2014-Sep-17 06:31N 48°31' W 122°35'0 0.0
2014-Sep-17 05:28N 48°31' W 122°35'0 0.0
2014-Sep-17 04:31N 48°31' W 122°35'0 0.0
2014-Sep-17 03:31N 48°31' W 122°35'0 0.1
2014-Sep-17 02:31N 48°31' W 122°35'0 0.0
2014-Sep-17 01:28N 48°31' W 122°35'0 0.0
2014-Sep-17 00:28N 48°31' W 122°35'0 0.0
2014-Sep-16 23:22N 48°31' W 122°35'0 0.0
2014-Sep-16 22:28N 48°31' W 122°35'0 0.0
2014-Sep-16 21:28N 48°31' W 122°35'0 0.1
2014-Sep-16 20:31N 48°31' W 122°35'0 0.2
2014-Sep-16 19:22N 48°31' W 122°35'0 0.2
2014-Sep-16 18:16N 48°31' W 122°35'0 0.1
2014-Sep-16 17:28N 48°31' W 122°35'0 0.1
2014-Sep-16 16:28N 48°31' W 122°35'0 0.1
2014-Sep-16 15:31N 48°31' W 122°35'0 0.2
2014-Sep-16 14:28N 48°31' W 122°35'0 0.1
2014-Sep-16 13:28N 48°31' W 122°35'0 0.0
2014-Sep-16 12:31N 48°31' W 122°35'0 0.0
2014-Sep-16 11:28N 48°31' W 122°35'0 0.0
2014-Sep-16 10:28N 48°31' W 122°35'0 0.0
2014-Sep-16 09:31N 48°31' W 122°35'0 0.0
2014-Sep-16 08:28N 48°31' W 122°35'0 0.0
2014-Sep-16 07:31N 48°31' W 122°35'0 0.0
2014-Sep-16 06:31N 48°31' W 122°35'0 0.0
2014-Sep-16 05:31N 48°31' W 122°35'0 0.0
2014-Sep-16 04:28N 48°31' W 122°35'0 0.0
2014-Sep-16 03:28N 48°31' W 122°35'0 0.0
2014-Sep-16 02:31N 48°31' W 122°35'0 0.0
2014-Sep-16 01:28N 48°31' W 122°35'0 0.0
2014-Sep-16 00:28N 48°31' W 122°35'0 0.0
2014-Sep-15 23:28N 48°31' W 122°35'0 0.0
2014-Sep-15 22:28N 48°31' W 122°35'0 0.0
2014-Sep-15 21:22N 48°31' W 122°35'0 0.0
2014-Sep-15 20:31N 48°31' W 122°35'0 0.0
2014-Sep-15 19:31N 48°31' W 122°35'0 0.1
2014-Sep-15 18:28N 48°31' W 122°35'0 0.0
2014-Sep-15 17:28N 48°31' W 122°35'0 0.1
2014-Sep-15 16:28N 48°31' W 122°35'0 0.1
2014-Sep-15 15:22N 48°31' W 122°35'0 0.1
2014-Sep-15 14:28N 48°31' W 122°35'0 0.2
2014-Sep-15 13:31N 48°31' W 122°35'0 0.0
2014-Sep-15 12:31N 48°31' W 122°35'0 0.0
2014-Sep-15 11:31N 48°31' W 122°35'0 0.0
2014-Sep-15 10:31N 48°31' W 122°35'0 0.0
2014-Sep-15 09:28N 48°31' W 122°35'0 0.0
2014-Sep-15 08:28N 48°31' W 122°35'0 0.0
2014-Sep-15 07:28N 48°31' W 122°35'0 0.0
2014-Sep-15 06:28N 48°31' W 122°35'0 0.0
2014-Sep-15 05:28N 48°31' W 122°35'0 0.1
2014-Sep-15 04:28N 48°31' W 122°35'0 0.1
2014-Sep-15 03:28N 48°31' W 122°35'0 0.0
2014-Sep-15 02:33N 48°31' W 122°35'0 0.1
2014-Sep-15 01:33N 48°31' W 122°35'0 0.1
2014-Sep-15 00:33N 48°31' W 122°35'0 0.0
2014-Sep-14 23:33N 48°31' W 122°35'0 0.0
2014-Sep-14 22:33N 48°31' W 122°35'0 0.0
2014-Sep-14 21:33N 48°31' W 122°35'0 0.1
2014-Sep-14 20:33N 48°31' W 122°35'1 0.7
2014-Sep-14 19:33N 48°31' W 122°35'0 0.0
2014-Sep-14 18:31N 48°31' W 122°35'0 0.0
2014-Sep-14 17:31N 48°31' W 122°35'0 0.0
2014-Sep-14 16:31N 48°31' W 122°35'0 0.0
2014-Sep-14 15:28N 48°31' W 122°35'0 0.0
2014-Sep-14 14:31N 48°31' W 122°35'0 0.0
2014-Sep-14 13:28N 48°31' W 122°35'0 0.0
2014-Sep-14 12:31N 48°31' W 122°35'0 0.0
2014-Sep-14 11:31N 48°31' W 122°35'0 0.0
2014-Sep-14 10:31N 48°31' W 122°35'0 0.0
2014-Sep-14 09:31N 48°31' W 122°35'0 0.0
2014-Sep-14 08:28N 48°31' W 122°35'0 0.0
2014-Sep-14 07:31N 48°31' W 122°35'0 0.0
2014-Sep-14 06:31N 48°31' W 122°35'0 0.0
2014-Sep-14 05:28N 48°31' W 122°35'0 0.0
2014-Sep-14 04:31N 48°31' W 122°35'0 0.0
2014-Sep-14 03:28N 48°31' W 122°35'0 0.0
2014-Sep-14 02:31N 48°31' W 122°35'0 0.0
2014-Sep-14 01:31N 48°31' W 122°35'0 0.0
2014-Sep-13 21:31N 48°31' W 122°35'0 0.0
2014-Sep-13 20:31N 48°31' W 122°35'0 0.0
2014-Sep-13 19:28N 48°31' W 122°35'0 0.0
2014-Sep-13 18:31N 48°31' W 122°35'0 0.0
2014-Sep-13 17:28N 48°31' W 122°35'0 0.0
2014-Sep-13 16:28N 48°31' W 122°35'0 0.0
2014-Sep-13 15:28N 48°31' W 122°35'0 0.0
2014-Sep-13 14:31N 48°31' W 122°35'0 0.0
2014-Sep-13 13:31N 48°31' W 122°35'0 0.0
2014-Sep-13 12:31N 48°31' W 122°35'0 0.0
2014-Sep-13 11:31N 48°31' W 122°35'0 0.0
2014-Sep-13 10:31N 48°31' W 122°35'0 0.0
2014-Sep-13 09:31N 48°31' W 122°35'0 0.0
2014-Sep-13 08:34N 48°31' W 122°35'0 0.5
2014-Sep-13 07:34N 48°31' W 122°35'0 0.1
2014-Sep-13 06:33N 48°31' W 122°35'0 0.0
2014-Sep-13 05:31N 48°31' W 122°35'0 0.0
2014-Sep-13 04:31N 48°31' W 122°35'0 0.1
2014-Sep-13 03:28N 48°31' W 122°35'0 0.0
2014-Sep-13 02:31N 48°31' W 122°35'  

Dump ship's entire track history